Turiacu, Brazil
Current Conditions -  °F | °C
As of 1:00 PM on Thursday 27 Nov 2014 (Local Time) from SBSL Reporting Station
Scattered Clouds Scattered Clouds  
Wind Chill: 90°   Ceiling: Unl
Heat Index: 92°   Visibility: 6mi
Dew Point: 66°   Wind: 20mph
Humidity: 46%   Direction: 60°ENE
Pressure: 29.83"   Gusts: NA
Location:  1.66°S, 45.37°W
Report Text: SBSL 271600Z 06017KT 020V090 9999 SCT017 FEW020TCU 32/19 Q1010
Loading
Personal Weather Stations






























Interactive Weather Map New forecast layout! Learn more

10-Day Weather Forecast

Advertisements
Track Severe Weather on mobile